sensor_id;sensor_type;location;lat;lon;timestamp;P1;durP1;ratioP1;P2;durP2;ratioP2
40116;SDS011;25829;50.228;18.936;2023-03-01T00:00:27;94.37;;;44.47;;
40116;SDS011;25829;50.228;18.936;2023-03-01T00:03:27;88.10;;;43.80;;
40116;SDS011;25829;50.228;18.936;2023-03-01T00:06:28;90.63;;;44.80;;
40116;SDS011;25829;50.228;18.936;2023-03-01T00:09:29;100.57;;;46.33;;
40116;SDS011;25829;50.228;18.936;2023-03-01T00:12:31;95.47;;;47.30;;
40116;SDS011;25829;50.228;18.936;2023-03-01T00:15:31;98.20;;;46.43;;
40116;SDS011;25829;50.228;18.936;2023-03-01T00:18:32;81.57;;;40.97;;
40116;SDS011;25829;50.228;18.936;2023-03-01T00:21:34;63.93;;;36.27;;
40116;SDS011;25829;50.228;18.936;2023-03-01T00:24:35;79.43;;;39.10;;
40116;SDS011;25829;50.228;18.936;2023-03-01T00:27:36;81.60;;;40.90;;
40116;SDS011;25829;50.228;18.936;2023-03-01T00:30:37;96.27;;;46.83;;
40116;SDS011;25829;50.228;18.936;2023-03-01T00:33:38;98.33;;;47.97;;
40116;SDS011;25829;50.228;18.936;2023-03-01T00:36:39;104.87;;;48.87;;
40116;SDS011;25829;50.228;18.936;2023-03-01T00:39:40;93.10;;;45.80;;
40116;SDS011;25829;50.228;18.936;2023-03-01T00:42:42;87.23;;;44.20;;
40116;SDS011;25829;50.228;18.936;2023-03-01T00:45:46;91.57;;;43.20;;
40116;SDS011;25829;50.228;18.936;2023-03-01T00:48:47;84.77;;;45.33;;
40116;SDS011;25829;50.228;18.936;2023-03-01T00:51:55;84.07;;;41.53;;
40116;SDS011;25829;50.228;18.936;2023-03-01T00:54:57;76.87;;;37.40;;
40116;SDS011;25829;50.228;18.936;2023-03-01T00:58:04;83.70;;;42.13;;
40116;SDS011;25829;50.228;18.936;2023-03-01T01:01:09;95.63;;;42.97;;
40116;SDS011;25829;50.228;18.936;2023-03-01T01:04:17;81.77;;;41.73;;
40116;SDS011;25829;50.228;18.936;2023-03-01T01:07:21;86.03;;;41.43;;
40116;SDS011;25829;50.228;18.936;2023-03-01T01:10:22;83.10;;;40.70;;
40116;SDS011;25829;50.228;18.936;2023-03-01T01:13:23;79.73;;;41.63;;
40116;SDS011;25829;50.228;18.936;2023-03-01T01:16:24;81.80;;;42.33;;
40116;SDS011;25829;50.228;18.936;2023-03-01T01:19:26;103.30;;;48.83;;
40116;SDS011;25829;50.228;18.936;2023-03-01T01:22:29;88.37;;;43.80;;
40116;SDS011;25829;50.228;18.936;2023-03-01T01:25:29;95.93;;;45.80;;
40116;SDS011;25829;50.228;18.936;2023-03-01T01:28:31;94.10;;;45.47;;
40116;SDS011;25829;50.228;18.936;2023-03-01T01:31:35;91.73;;;47.17;;
40116;SDS011;25829;50.228;18.936;2023-03-01T01:34:38;93.27;;;45.03;;
40116;SDS011;25829;50.228;18.936;2023-03-01T01:37:39;94.87;;;46.93;;
40116;SDS011;25829;50.228;18.936;2023-03-01T01:40:46;96.47;;;45.37;;
40116;SDS011;25829;50.228;18.936;2023-03-01T01:43:49;97.63;;;46.87;;
40116;SDS011;25829;50.228;18.936;2023-03-01T01:47:21;97.43;;;47.53;;
40116;SDS011;25829;50.228;18.936;2023-03-01T01:50:23;86.90;;;42.77;;
40116;SDS011;25829;50.228;18.936;2023-03-01T01:53:24;88.60;;;42.43;;
40116;SDS011;25829;50.228;18.936;2023-03-01T01:56:26;85.73;;;42.37;;
40116;SDS011;25829;50.228;18.936;2023-03-01T01:59:28;95.73;;;43.73;;
40116;SDS011;25829;50.228;18.936;2023-03-01T02:02:41;80.97;;;43.23;;
40116;SDS011;25829;50.228;18.936;2023-03-01T02:05:51;80.87;;;42.30;;
40116;SDS011;25829;50.228;18.936;2023-03-01T02:09:00;84.97;;;39.93;;
40116;SDS011;25829;50.228;18.936;2023-03-01T02:12:05;84.23;;;39.97;;
40116;SDS011;25829;50.228;18.936;2023-03-01T02:15:10;78.67;;;41.00;;
40116;SDS011;25829;50.228;18.936;2023-03-01T02:18:12;82.30;;;43.10;;
40116;SDS011;25829;50.228;18.936;2023-03-01T02:28:26;89.07;;;41.47;;
40116;SDS011;25829;50.228;18.936;2023-03-01T02:31:36;83.33;;;42.13;;
40116;SDS011;25829;50.228;18.936;2023-03-01T02:34:42;81.07;;;41.30;;
40116;SDS011;25829;50.228;18.936;2023-03-01T02:38:02;88.20;;;42.23;;
40116;SDS011;25829;50.228;18.936;2023-03-01T02:41:06;102.17;;;45.97;;
40116;SDS011;25829;50.228;18.936;2023-03-01T02:44:12;108.23;;;49.03;;
40116;SDS011;25829;50.228;18.936;2023-03-01T02:47:12;106.07;;;49.13;;
40116;SDS011;25829;50.228;18.936;2023-03-01T02:53:34;104.10;;;48.43;;
40116;SDS011;25829;50.228;18.936;2023-03-01T02:57:19;102.17;;;47.83;;
40116;SDS011;25829;50.228;18.936;2023-03-01T03:00:26;101.10;;;49.13;;
40116;SDS011;25829;50.228;18.936;2023-03-01T03:03:40;94.70;;;47.60;;
40116;SDS011;25829;50.228;18.936;2023-03-01T03:06:45;98.10;;;47.20;;
40116;SDS011;25829;50.228;18.936;2023-03-01T03:09:49;91.00;;;45.57;;
40116;SDS011;25829;50.228;18.936;2023-03-01T03:12:57;95.17;;;45.23;;
40116;SDS011;25829;50.228;18.936;2023-03-01T03:16:14;93.77;;;46.80;;
40116;SDS011;25829;50.228;18.936;2023-03-01T03:19:16;94.03;;;46.33;;
40116;SDS011;25829;50.228;18.936;2023-03-01T03:22:17;89.63;;;45.00;;
40116;SDS011;25829;50.228;18.936;2023-03-01T03:25:22;100.10;;;50.57;;
40116;SDS011;25829;50.228;18.936;2023-03-01T03:28:25;95.67;;;47.47;;
40116;SDS011;25829;50.228;18.936;2023-03-01T03:31:26;99.73;;;50.40;;
40116;SDS011;25829;50.228;18.936;2023-03-01T03:34:30;102.70;;;49.67;;
40116;SDS011;25829;50.228;18.936;2023-03-01T03:37:31;91.20;;;48.97;;
40116;SDS011;25829;50.228;18.936;2023-03-01T03:44:13;99.10;;;48.33;;
40116;SDS011;25829;50.228;18.936;2023-03-01T03:47:14;98.97;;;49.20;;
40116;SDS011;25829;50.228;18.936;2023-03-01T03:50:16;98.23;;;48.07;;
40116;SDS011;25829;50.228;18.936;2023-03-01T03:53:18;95.50;;;48.07;;
40116;SDS011;25829;50.228;18.936;2023-03-01T03:56:21;100.03;;;47.87;;
40116;SDS011;25829;50.228;18.936;2023-03-01T03:59:26;106.40;;;50.67;;
40116;SDS011;25829;50.228;18.936;2023-03-01T04:02:27;102.20;;;48.83;;
40116;SDS011;25829;50.228;18.936;2023-03-01T04:05:28;100.67;;;48.10;;
40116;SDS011;25829;50.228;18.936;2023-03-01T04:08:29;102.83;;;51.07;;
40116;SDS011;25829;50.228;18.936;2023-03-01T04:11:30;101.53;;;49.57;;
40116;SDS011;25829;50.228;18.936;2023-03-01T04:14:37;106.70;;;49.37;;
40116;SDS011;25829;50.228;18.936;2023-03-01T04:17:39;109.47;;;52.97;;
40116;SDS011;25829;50.228;18.936;2023-03-01T04:20:53;100.83;;;50.37;;
40116;SDS011;25829;50.228;18.936;2023-03-01T04:24:06;106.97;;;50.87;;
40116;SDS011;25829;50.228;18.936;2023-03-01T04:27:09;99.93;;;49.00;;
40116;SDS011;25829;50.228;18.936;2023-03-01T04:30:13;101.80;;;50.53;;
40116;SDS011;25829;50.228;18.936;2023-03-01T04:33:14;106.97;;;51.00;;
40116;SDS011;25829;50.228;18.936;2023-03-01T04:36:23;102.23;;;49.57;;
40116;SDS011;25829;50.228;18.936;2023-03-01T04:39:26;123.33;;;58.93;;
40116;SDS011;25829;50.228;18.936;2023-03-01T04:42:38;106.83;;;55.20;;
40116;SDS011;25829;50.228;18.936;2023-03-01T04:45:40;104.80;;;51.70;;
40116;SDS011;25829;50.228;18.936;2023-03-01T04:48:45;107.30;;;54.30;;
40116;SDS011;25829;50.228;18.936;2023-03-01T04:51:49;112.90;;;56.63;;
40116;SDS011;25829;50.228;18.936;2023-03-01T04:55:05;131.23;;;60.77;;
40116;SDS011;25829;50.228;18.936;2023-03-01T04:58:06;127.17;;;59.93;;
40116;SDS011;25829;50.228;18.936;2023-03-01T05:01:08;120.27;;;57.33;;
40116;SDS011;25829;50.228;18.936;2023-03-01T05:04:20;112.87;;;55.87;;
40116;SDS011;25829;50.228;18.936;2023-03-01T05:07:20;111.33;;;58.07;;
40116;SDS011;25829;50.228;18.936;2023-03-01T05:10:22;121.03;;;60.77;;
40116;SDS011;25829;50.228;18.936;2023-03-01T05:13:29;122.00;;;56.00;;
40116;SDS011;25829;50.228;18.936;2023-03-01T05:16:35;105.80;;;51.60;;
40116;SDS011;25829;50.228;18.936;2023-03-01T05:19:37;109.43;;;52.20;;
40116;SDS011;25829;50.228;18.936;2023-03-01T05:22:40;118.10;;;53.93;;
40116;SDS011;25829;50.228;18.936;2023-03-01T05:25:41;102.43;;;51.07;;
40116;SDS011;25829;50.228;18.936;2023-03-01T05:28:44;107.97;;;52.40;;
40116;SDS011;25829;50.228;18.936;2023-03-01T05:31:46;106.27;;;51.50;;
40116;SDS011;25829;50.228;18.936;2023-03-01T05:34:53;106.47;;;51.03;;
40116;SDS011;25829;50.228;18.936;2023-03-01T05:37:58;104.07;;;54.43;;
40116;SDS011;25829;50.228;18.936;2023-03-01T05:41:02;108.70;;;51.43;;
40116;SDS011;25829;50.228;18.936;2023-03-01T05:44:03;102.93;;;50.80;;
40116;SDS011;25829;50.228;18.936;2023-03-01T05:47:07;102.03;;;52.70;;
40116;SDS011;25829;50.228;18.936;2023-03-01T05:50:08;98.63;;;50.33;;
40116;SDS011;25829;50.228;18.936;2023-03-01T05:53:29;100.80;;;49.10;;
40116;SDS011;25829;50.228;18.936;2023-03-01T05:56:39;112.93;;;53.60;;
40116;SDS011;25829;50.228;18.936;2023-03-01T05:59:40;109.70;;;53.33;;
40116;SDS011;25829;50.228;18.936;2023-03-01T06:02:57;108.60;;;52.33;;
40116;SDS011;25829;50.228;18.936;2023-03-01T06:06:07;96.70;;;48.27;;
40116;SDS011;25829;50.228;18.936;2023-03-01T06:09:20;104.07;;;51.67;;
40116;SDS011;25829;50.228;18.936;2023-03-01T06:12:31;106.13;;;54.97;;
40116;SDS011;25829;50.228;18.936;2023-03-01T06:15:36;103.43;;;56.17;;
40116;SDS011;25829;50.228;18.936;2023-03-01T06:18:37;118.63;;;58.00;;
40116;SDS011;25829;50.228;18.936;2023-03-01T06:21:47;111.23;;;56.10;;
40116;SDS011;25829;50.228;18.936;2023-03-01T06:24:52;146.97;;;75.27;;
40116;SDS011;25829;50.228;18.936;2023-03-01T06:27:59;149.40;;;73.83;;
40116;SDS011;25829;50.228;18.936;2023-03-01T06:31:00;141.57;;;69.87;;
40116;SDS011;25829;50.228;18.936;2023-03-01T06:34:11;120.13;;;61.57;;
40116;SDS011;25829;50.228;18.936;2023-03-01T06:37:13;116.87;;;59.53;;
40116;SDS011;25829;50.228;18.936;2023-03-01T06:40:17;119.10;;;59.17;;
40116;SDS011;25829;50.228;18.936;2023-03-01T06:43:18;127.63;;;60.30;;
40116;SDS011;25829;50.228;18.936;2023-03-01T06:46:19;118.27;;;57.37;;
40116;SDS011;25829;50.228;18.936;2023-03-01T07:06:54;106.60;;;56.23;;
40116;SDS011;25829;50.228;18.936;2023-03-01T07:09:55;105.03;;;54.90;;
40116;SDS011;25829;50.228;18.936;2023-03-01T07:12:56;113.40;;;56.97;;
40116;SDS011;25829;50.228;18.936;2023-03-01T07:15:58;107.17;;;54.27;;
40116;SDS011;25829;50.228;18.936;2023-03-01T07:18:59;105.73;;;53.40;;
40116;SDS011;25829;50.228;18.936;2023-03-01T07:22:00;96.83;;;50.93;;
40116;SDS011;25829;50.228;18.936;2023-03-01T07:25:01;90.83;;;49.80;;
40116;SDS011;25829;50.228;18.936;2023-03-01T07:28:02;86.07;;;46.37;;
40116;SDS011;25829;50.228;18.936;2023-03-01T07:31:03;71.47;;;36.97;;
40116;SDS011;25829;50.228;18.936;2023-03-01T07:34:05;62.70;;;32.93;;
40116;SDS011;25829;50.228;18.936;2023-03-01T07:37:06;84.93;;;44.20;;
40116;SDS011;25829;50.228;18.936;2023-03-01T07:40:07;70.30;;;38.50;;
40116;SDS011;25829;50.228;18.936;2023-03-01T07:43:09;59.07;;;32.87;;
40116;SDS011;25829;50.228;18.936;2023-03-01T07:46:13;80.47;;;40.40;;
40116;SDS011;25829;50.228;18.936;2023-03-01T07:49:14;62.40;;;33.10;;
40116;SDS011;25829;50.228;18.936;2023-03-01T07:52:15;65.13;;;34.57;;
40116;SDS011;25829;50.228;18.936;2023-03-01T07:55:16;62.43;;;33.13;;
40116;SDS011;25829;50.228;18.936;2023-03-01T07:58:16;51.27;;;30.63;;
40116;SDS011;25829;50.228;18.936;2023-03-01T08:01:18;61.27;;;32.17;;
40116;SDS011;25829;50.228;18.936;2023-03-01T08:04:20;50.83;;;30.03;;
40116;SDS011;25829;50.228;18.936;2023-03-01T08:07:22;53.03;;;30.30;;
40116;SDS011;25829;50.228;18.936;2023-03-01T08:10:23;49.30;;;26.87;;
40116;SDS011;25829;50.228;18.936;2023-03-01T08:13:24;46.30;;;27.37;;
40116;SDS011;25829;50.228;18.936;2023-03-01T08:16:25;48.00;;;26.37;;
40116;SDS011;25829;50.228;18.936;2023-03-01T08:19:26;51.33;;;27.77;;
40116;SDS011;25829;50.228;18.936;2023-03-01T08:22:28;50.20;;;27.80;;
40116;SDS011;25829;50.228;18.936;2023-03-01T08:25:29;45.63;;;25.67;;
40116;SDS011;25829;50.228;18.936;2023-03-01T08:28:30;49.13;;;24.73;;
40116;SDS011;25829;50.228;18.936;2023-03-01T08:31:33;40.83;;;21.70;;
40116;SDS011;25829;50.228;18.936;2023-03-01T08:34:41;46.07;;;25.27;;
40116;SDS011;25829;50.228;18.936;2023-03-01T08:37:42;43.50;;;22.17;;
40116;SDS011;25829;50.228;18.936;2023-03-01T08:40:43;44.43;;;21.67;;
40116;SDS011;25829;50.228;18.936;2023-03-01T08:43:44;37.80;;;22.40;;
40116;SDS011;25829;50.228;18.936;2023-03-01T08:46:45;36.53;;;18.60;;
40116;SDS011;25829;50.228;18.936;2023-03-01T08:49:48;33.07;;;17.87;;
40116;SDS011;25829;50.228;18.936;2023-03-01T08:52:57;27.97;;;16.27;;
40116;SDS011;25829;50.228;18.936;2023-03-01T08:56:04;27.47;;;17.00;;
40116;SDS011;25829;50.228;18.936;2023-03-01T08:59:05;28.87;;;16.97;;
40116;SDS011;25829;50.228;18.936;2023-03-01T09:02:11;23.07;;;12.03;;
40116;SDS011;25829;50.228;18.936;2023-03-01T09:05:21;21.67;;;13.10;;
40116;SDS011;25829;50.228;18.936;2023-03-01T09:08:28;19.03;;;13.47;;
40116;SDS011;25829;50.228;18.936;2023-03-01T09:11:30;27.63;;;13.50;;
40116;SDS011;25829;50.228;18.936;2023-03-01T09:18:13;24.70;;;14.57;;
40116;SDS011;25829;50.228;18.936;2023-03-01T09:21:29;23.00;;;14.13;;
40116;SDS011;25829;50.228;18.936;2023-03-01T09:24:30;22.10;;;13.03;;
40116;SDS011;25829;50.228;18.936;2023-03-01T09:27:41;29.07;;;14.43;;
40116;SDS011;25829;50.228;18.936;2023-03-01T09:34:08;24.80;;;15.43;;
40116;SDS011;25829;50.228;18.936;2023-03-01T09:37:09;24.30;;;14.33;;
40116;SDS011;25829;50.228;18.936;2023-03-01T09:40:18;25.63;;;14.73;;
40116;SDS011;25829;50.228;18.936;2023-03-01T09:51:00;23.63;;;13.40;;
40116;SDS011;25829;50.228;18.936;2023-03-01T09:54:22;24.87;;;15.20;;
40116;SDS011;25829;50.228;18.936;2023-03-01T09:58:25;24.70;;;14.07;;
40116;SDS011;25829;50.228;18.936;2023-03-01T10:08:37;23.90;;;15.70;;
40116;SDS011;25829;50.228;18.936;2023-03-01T10:11:54;30.77;;;16.47;;
40116;SDS011;25829;50.228;18.936;2023-03-01T10:15:18;28.00;;;16.10;;
40116;SDS011;25829;50.228;18.936;2023-03-01T10:18:39;23.58;;;16.52;;
40116;SDS011;25829;50.228;18.936;2023-03-01T10:22:27;37.63;;;18.42;;
40116;SDS011;25829;50.228;18.936;2023-03-01T10:29:48;28.30;;;17.38;;
40116;SDS011;25829;50.228;18.936;2023-03-01T10:33:37;31.10;;;18.05;;
40116;SDS011;25829;50.228;18.936;2023-03-01T10:36:52;22.52;;;15.60;;
40116;SDS011;25829;50.228;18.936;2023-03-01T10:43:10;24.60;;;14.85;;
40116;SDS011;25829;50.228;18.936;2023-03-01T10:46:59;20.40;;;15.00;;
40116;SDS011;25829;50.228;18.936;2023-03-01T10:50:06;23.70;;;14.83;;
40116;SDS011;25829;50.228;18.936;2023-03-01T10:53:21;25.90;;;16.03;;
40116;SDS011;25829;50.228;18.936;2023-03-01T10:56:44;24.80;;;16.07;;
40116;SDS011;25829;50.228;18.936;2023-03-01T10:59:47;21.83;;;15.43;;
40116;SDS011;25829;50.228;18.936;2023-03-01T11:03:03;24.27;;;15.10;;
40116;SDS011;25829;50.228;18.936;2023-03-01T11:09:13;24.73;;;14.23;;
40116;SDS011;25829;50.228;18.936;2023-03-01T11:12:21;21.97;;;14.63;;
40116;SDS011;25829;50.228;18.936;2023-03-01T11:15:28;31.17;;;15.17;;
40116;SDS011;25829;50.228;18.936;2023-03-01T11:18:30;22.77;;;14.10;;
40116;SDS011;25829;50.228;18.936;2023-03-01T11:21:38;19.90;;;13.27;;
40116;SDS011;25829;50.228;18.936;2023-03-01T11:24:51;23.57;;;14.13;;
40116;SDS011;25829;50.228;18.936;2023-03-01T11:27:55;26.03;;;15.70;;
40116;SDS011;25829;50.228;18.936;2023-03-01T11:31:05;29.30;;;16.27;;
40116;SDS011;25829;50.228;18.936;2023-03-01T11:34:17;21.67;;;13.67;;
40116;SDS011;25829;50.228;18.936;2023-03-01T11:37:38;20.00;;;14.97;;
40116;SDS011;25829;50.228;18.936;2023-03-01T11:40:44;28.43;;;16.07;;
40116;SDS011;25829;50.228;18.936;2023-03-01T11:44:23;21.23;;;14.40;;
40116;SDS011;25829;50.228;18.936;2023-03-01T11:50:44;23.23;;;14.83;;
40116;SDS011;25829;50.228;18.936;2023-03-01T11:57:27;26.27;;;16.47;;
40116;SDS011;25829;50.228;18.936;2023-03-01T12:14:26;25.03;;;14.57;;
40116;SDS011;25829;50.228;18.936;2023-03-01T12:21:14;24.67;;;13.23;;
40116;SDS011;25829;50.228;18.936;2023-03-01T12:24:48;23.70;;;13.87;;
40116;SDS011;25829;50.228;18.936;2023-03-01T12:28:00;24.17;;;13.60;;
40116;SDS011;25829;50.228;18.936;2023-03-01T12:51:17;23.13;;;12.77;;
40116;SDS011;25829;50.228;18.936;2023-03-01T12:54:26;25.80;;;12.30;;
40116;SDS011;25829;50.228;18.936;2023-03-01T12:57:31;20.10;;;12.80;;
40116;SDS011;25829;50.228;18.936;2023-03-01T13:00:41;22.90;;;13.87;;
40116;SDS011;25829;50.228;18.936;2023-03-01T13:10:43;21.47;;;12.80;;
40116;SDS011;25829;50.228;18.936;2023-03-01T13:13:46;19.07;;;11.77;;
40116;SDS011;25829;50.228;18.936;2023-03-01T13:16:52;17.63;;;11.83;;
40116;SDS011;25829;50.228;18.936;2023-03-01T13:20:00;17.97;;;11.47;;
40116;SDS011;25829;50.228;18.936;2023-03-01T13:23:12;18.43;;;11.17;;
40116;SDS011;25829;50.228;18.936;2023-03-01T13:26:17;18.57;;;11.03;;
40116;SDS011;25829;50.228;18.936;2023-03-01T13:29:27;17.63;;;10.43;;
40116;SDS011;25829;50.228;18.936;2023-03-01T13:32:53;18.87;;;10.50;;
40116;SDS011;25829;50.228;18.936;2023-03-01T13:39:40;15.23;;;9.80;;
40116;SDS011;25829;50.228;18.936;2023-03-01T13:42:41;14.57;;;9.97;;
40116;SDS011;25829;50.228;18.936;2023-03-01T13:48:59;14.03;;;9.27;;
40116;SDS011;25829;50.228;18.936;2023-03-01T13:52:03;17.47;;;9.70;;
40116;SDS011;25829;50.228;18.936;2023-03-01T13:55:51;15.00;;;9.70;;
40116;SDS011;25829;50.228;18.936;2023-03-01T13:58:44;14.53;;;9.00;;
40116;SDS011;25829;50.228;18.936;2023-03-01T14:01:58;15.60;;;9.83;;
40116;SDS011;25829;50.228;18.936;2023-03-01T14:05:00;15.67;;;9.43;;
40116;SDS011;25829;50.228;18.936;2023-03-01T14:08:02;16.47;;;9.70;;
40116;SDS011;25829;50.228;18.936;2023-03-01T14:11:20;15.40;;;9.63;;
40116;SDS011;25829;50.228;18.936;2023-03-01T14:14:45;13.80;;;7.67;;
40116;SDS011;25829;50.228;18.936;2023-03-01T14:21:21;14.27;;;8.47;;
40116;SDS011;25829;50.228;18.936;2023-03-01T14:24:23;12.00;;;8.00;;
40116;SDS011;25829;50.228;18.936;2023-03-01T14:27:29;15.90;;;9.20;;
40116;SDS011;25829;50.228;18.936;2023-03-01T14:30:35;13.00;;;9.47;;
40116;SDS011;25829;50.228;18.936;2023-03-01T14:33:45;15.30;;;9.97;;
40116;SDS011;25829;50.228;18.936;2023-03-01T14:37:09;20.20;;;9.60;;
40116;SDS011;25829;50.228;18.936;2023-03-01T14:40:21;15.83;;;10.03;;
40116;SDS011;25829;50.228;18.936;2023-03-01T14:43:45;18.30;;;10.37;;
40116;SDS011;25829;50.228;18.936;2023-03-01T14:46:51;18.90;;;11.10;;
40116;SDS011;25829;50.228;18.936;2023-03-01T14:50:02;22.40;;;11.10;;
40116;SDS011;25829;50.228;18.936;2023-03-01T14:53:27;15.33;;;10.10;;
40116;SDS011;25829;50.228;18.936;2023-03-01T14:56:37;18.67;;;10.40;;
40116;SDS011;25829;50.228;18.936;2023-03-01T14:59:44;15.13;;;9.70;;
40116;SDS011;25829;50.228;18.936;2023-03-01T15:02:51;15.23;;;9.80;;
40116;SDS011;25829;50.228;18.936;2023-03-01T15:05:53;16.43;;;9.13;;
40116;SDS011;25829;50.228;18.936;2023-03-01T15:08:57;16.20;;;10.27;;
40116;SDS011;25829;50.228;18.936;2023-03-01T15:11:58;17.97;;;10.30;;
40116;SDS011;25829;50.228;18.936;2023-03-01T15:14:59;20.10;;;11.60;;
40116;SDS011;25829;50.228;18.936;2023-03-01T15:18:05;16.40;;;11.03;;
40116;SDS011;25829;50.228;18.936;2023-03-01T15:21:24;22.73;;;10.97;;
40116;SDS011;25829;50.228;18.936;2023-03-01T15:24:30;17.17;;;11.00;;
40116;SDS011;25829;50.228;18.936;2023-03-01T15:27:36;16.47;;;10.23;;
40116;SDS011;25829;50.228;18.936;2023-03-01T15:30:42;18.10;;;10.87;;
40116;SDS011;25829;50.228;18.936;2023-03-01T15:33:49;20.70;;;11.20;;
40116;SDS011;25829;50.228;18.936;2023-03-01T15:36:54;20.37;;;11.77;;
40116;SDS011;25829;50.228;18.936;2023-03-01T15:39:59;19.93;;;11.87;;
40116;SDS011;25829;50.228;18.936;2023-03-01T15:43:00;20.33;;;13.50;;
40116;SDS011;25829;50.228;18.936;2023-03-01T15:46:03;28.17;;;17.77;;
40116;SDS011;25829;50.228;18.936;2023-03-01T15:49:24;20.70;;;14.77;;
40116;SDS011;25829;50.228;18.936;2023-03-01T15:52:39;19.70;;;12.43;;
40116;SDS011;25829;50.228;18.936;2023-03-01T15:55:42;22.10;;;12.07;;
40116;SDS011;25829;50.228;18.936;2023-03-01T15:58:44;20.67;;;12.20;;
40116;SDS011;25829;50.228;18.936;2023-03-01T16:01:48;20.77;;;11.33;;
40116;SDS011;25829;50.228;18.936;2023-03-01T16:04:49;18.13;;;11.83;;
40116;SDS011;25829;50.228;18.936;2023-03-01T16:07:51;22.37;;;13.40;;
40116;SDS011;25829;50.228;18.936;2023-03-01T16:10:56;23.07;;;12.17;;
40116;SDS011;25829;50.228;18.936;2023-03-01T16:13:58;25.63;;;13.37;;
40116;SDS011;25829;50.228;18.936;2023-03-01T16:16:58;19.10;;;11.87;;
40116;SDS011;25829;50.228;18.936;2023-03-01T16:19:59;21.17;;;11.60;;
40116;SDS011;25829;50.228;18.936;2023-03-01T16:23:01;23.63;;;10.23;;
40116;SDS011;25829;50.228;18.936;2023-03-01T16:26:04;17.93;;;11.07;;
40116;SDS011;25829;50.228;18.936;2023-03-01T16:29:05;18.17;;;10.70;;
40116;SDS011;25829;50.228;18.936;2023-03-01T16:32:06;20.80;;;9.87;;
40116;SDS011;25829;50.228;18.936;2023-03-01T16:35:07;21.17;;;10.80;;
40116;SDS011;25829;50.228;18.936;2023-03-01T16:38:13;15.53;;;9.67;;
40116;SDS011;25829;50.228;18.936;2023-03-01T16:41:15;19.13;;;10.37;;
40116;SDS011;25829;50.228;18.936;2023-03-01T16:44:16;15.87;;;10.23;;
40116;SDS011;25829;50.228;18.936;2023-03-01T16:47:17;18.13;;;8.97;;
40116;SDS011;25829;50.228;18.936;2023-03-01T16:50:18;19.63;;;9.73;;
40116;SDS011;25829;50.228;18.936;2023-03-01T16:53:19;16.77;;;9.70;;
40116;SDS011;25829;50.228;18.936;2023-03-01T16:56:20;15.70;;;8.83;;
40116;SDS011;25829;50.228;18.936;2023-03-01T16:59:21;18.30;;;9.77;;
40116;SDS011;25829;50.228;18.936;2023-03-01T17:02:35;15.00;;;8.90;;
40116;SDS011;25829;50.228;18.936;2023-03-01T17:05:39;20.13;;;10.87;;
40116;SDS011;25829;50.228;18.936;2023-03-01T17:08:40;18.50;;;12.07;;
40116;SDS011;25829;50.228;18.936;2023-03-01T17:11:41;18.10;;;11.77;;
40116;SDS011;25829;50.228;18.936;2023-03-01T17:14:43;21.17;;;12.80;;
40116;SDS011;25829;50.228;18.936;2023-03-01T17:17:44;20.30;;;12.90;;
40116;SDS011;25829;50.228;18.936;2023-03-01T17:20:45;24.27;;;14.80;;
40116;SDS011;25829;50.228;18.936;2023-03-01T17:23:46;24.90;;;14.90;;
40116;SDS011;25829;50.228;18.936;2023-03-01T17:26:49;26.47;;;15.50;;
40116;SDS011;25829;50.228;18.936;2023-03-01T17:29:50;30.57;;;16.23;;
40116;SDS011;25829;50.228;18.936;2023-03-01T17:32:51;28.80;;;16.67;;
40116;SDS011;25829;50.228;18.936;2023-03-01T17:35:55;33.53;;;17.47;;
40116;SDS011;25829;50.228;18.936;2023-03-01T17:38:56;28.43;;;16.77;;
40116;SDS011;25829;50.228;18.936;2023-03-01T17:41:57;31.20;;;18.83;;
40116;SDS011;25829;50.228;18.936;2023-03-01T17:44:57;30.40;;;17.77;;
40116;SDS011;25829;50.228;18.936;2023-03-01T17:47:59;35.03;;;18.20;;
40116;SDS011;25829;50.228;18.936;2023-03-01T17:51:04;39.63;;;21.20;;
40116;SDS011;25829;50.228;18.936;2023-03-01T17:54:06;39.03;;;19.67;;
40116;SDS011;25829;50.228;18.936;2023-03-01T17:57:08;30.90;;;16.53;;
40116;SDS011;25829;50.228;18.936;2023-03-01T18:00:11;34.20;;;20.13;;
40116;SDS011;25829;50.228;18.936;2023-03-01T18:03:14;34.60;;;17.67;;
40116;SDS011;25829;50.228;18.936;2023-03-01T18:06:17;32.10;;;17.00;;
40116;SDS011;25829;50.228;18.936;2023-03-01T18:09:22;46.20;;;24.97;;
40116;SDS011;25829;50.228;18.936;2023-03-01T18:12:23;46.87;;;25.93;;
40116;SDS011;25829;50.228;18.936;2023-03-01T18:15:24;69.83;;;36.50;;
40116;SDS011;25829;50.228;18.936;2023-03-01T18:18:25;65.87;;;35.50;;
40116;SDS011;25829;50.228;18.936;2023-03-01T18:21:29;49.23;;;26.60;;
40116;SDS011;25829;50.228;18.936;2023-03-01T18:24:30;42.00;;;22.43;;
40116;SDS011;25829;50.228;18.936;2023-03-01T18:27:32;55.67;;;29.20;;
40116;SDS011;25829;50.228;18.936;2023-03-01T18:30:42;70.57;;;31.80;;
40116;SDS011;25829;50.228;18.936;2023-03-01T18:33:43;49.53;;;24.50;;
40116;SDS011;25829;50.228;18.936;2023-03-01T18:36:45;51.17;;;25.60;;
40116;SDS011;25829;50.228;18.936;2023-03-01T18:39:49;49.00;;;25.70;;
40116;SDS011;25829;50.228;18.936;2023-03-01T18:42:51;53.93;;;23.47;;
40116;SDS011;25829;50.228;18.936;2023-03-01T18:45:56;120.60;;;52.03;;
40116;SDS011;25829;50.228;18.936;2023-03-01T18:48:57;107.57;;;45.83;;
40116;SDS011;25829;50.228;18.936;2023-03-01T18:51:58;117.27;;;50.97;;
40116;SDS011;25829;50.228;18.936;2023-03-01T18:54:59;115.60;;;48.57;;
40116;SDS011;25829;50.228;18.936;2023-03-01T18:58:00;94.00;;;43.63;;
40116;SDS011;25829;50.228;18.936;2023-03-01T19:01:01;82.23;;;39.00;;
40116;SDS011;25829;50.228;18.936;2023-03-01T19:04:15;89.83;;;42.13;;
40116;SDS011;25829;50.228;18.936;2023-03-01T19:07:16;87.70;;;39.90;;
40116;SDS011;25829;50.228;18.936;2023-03-01T19:10:17;80.63;;;39.57;;
40116;SDS011;25829;50.228;18.936;2023-03-01T19:13:18;92.43;;;39.70;;
40116;SDS011;25829;50.228;18.936;2023-03-01T19:16:20;74.03;;;34.57;;
40116;SDS011;25829;50.228;18.936;2023-03-01T19:19:23;66.63;;;31.67;;
40116;SDS011;25829;50.228;18.936;2023-03-01T19:22:27;64.97;;;30.63;;
40116;SDS011;25829;50.228;18.936;2023-03-01T19:25:27;66.33;;;31.47;;
40116;SDS011;25829;50.228;18.936;2023-03-01T19:28:28;74.10;;;33.07;;
40116;SDS011;25829;50.228;18.936;2023-03-01T19:31:30;74.07;;;34.33;;
40116;SDS011;25829;50.228;18.936;2023-03-01T19:34:31;71.30;;;33.47;;
40116;SDS011;25829;50.228;18.936;2023-03-01T19:37:33;79.17;;;35.43;;
40116;SDS011;25829;50.228;18.936;2023-03-01T19:40:34;80.40;;;36.30;;
40116;SDS011;25829;50.228;18.936;2023-03-01T19:43:35;85.47;;;35.87;;
40116;SDS011;25829;50.228;18.936;2023-03-01T19:46:36;92.63;;;41.10;;
40116;SDS011;25829;50.228;18.936;2023-03-01T19:49:40;85.20;;;39.47;;
40116;SDS011;25829;50.228;18.936;2023-03-01T19:52:45;123.33;;;51.00;;